createdAt,value
2022-12-14T00:02:35.991Z,21.25
2022-12-14T00:05:15.883Z,20.85
2022-12-14T00:08:02.907Z,20.75
2022-12-14T00:10:42.864Z,21.30
2022-12-14T00:13:36.938Z,19.85
2022-12-14T00:16:27.931Z,21.15
2022-12-14T00:19:08.126Z,20.70
2022-12-14T00:21:54.896Z,21.10
2022-12-14T00:24:28.908Z,21.67
2022-12-14T00:27:15.886Z,22.15
2022-12-14T00:29:49.078Z,18.55
2022-12-14T00:32:35.883Z,20.42
2022-12-14T00:35:09.655Z,19.77
2022-12-14T00:37:55.922Z,19.75
2022-12-14T00:40:29.285Z,19.55
2022-12-14T00:43:15.949Z,21.00
2022-12-14T00:46:01.104Z,21.08
2022-12-14T00:48:48.977Z,21.92
2022-12-14T00:51:22.056Z,23.25
2022-12-14T00:54:01.929Z,21.60
2022-12-14T00:56:48.929Z,20.08
2022-12-14T00:59:43.941Z,21.23
2022-12-14T01:02:31.033Z,21.27
2022-12-14T01:05:04.014Z,19.88
2022-12-14T01:07:51.976Z,20.27
2022-12-14T01:10:25.089Z,21.90
2022-12-14T01:13:11.925Z,19.92
2022-12-14T01:15:45.108Z,19.98
2022-12-14T01:18:31.940Z,20.80
2022-12-14T01:21:17.017Z,19.70
2022-12-14T01:24:09.939Z,19.77
2022-12-14T01:26:45.977Z,20.55
2022-12-14T01:29:32.935Z,20.17
2022-12-14T01:32:06.024Z,18.25
2022-12-14T01:34:54.933Z,18.92
2022-12-14T01:37:29.194Z,19.10
2022-12-14T01:40:15.933Z,19.38
2022-12-14T01:42:55.952Z,18.25
2022-12-14T01:45:49.976Z,17.10
2022-12-14T01:48:36.969Z,19.98
2022-12-14T01:51:10.097Z,19.20
2022-12-14T01:53:58.025Z,19.33
2022-12-14T01:56:32.031Z,18.63
2022-12-14T01:59:27.966Z,19.48
2022-12-14T02:02:02.250Z,20.40
2022-12-14T02:04:55.925Z,18.90
2022-12-14T02:07:31.220Z,20.38
2022-12-14T02:10:17.933Z,20.02
2022-12-14T02:12:55.978Z,19.55
2022-12-14T02:15:45.050Z,22.40
2022-12-14T02:18:33.932Z,25.65
2022-12-14T02:21:45.929Z,21.60
2022-12-14T02:24:50.008Z,18.77
2022-12-14T02:27:51.980Z,20.95
2022-12-14T02:30:50.979Z,20.25
2022-12-14T02:34:02.993Z,20.88
2022-12-14T02:37:06.963Z,19.23
2022-12-14T02:40:18.928Z,19.73
2022-12-14T02:43:39.937Z,19.67
2022-12-14T02:46:25.972Z,18.13
2022-12-14T02:49:43.931Z,19.38
2022-12-14T02:52:58.953Z,18.27
2022-12-14T02:55:40.989Z,19.67
2022-12-14T02:58:33.936Z,18.88
2022-12-14T03:01:07.027Z,20.65
2022-12-14T03:03:53.928Z,19.42
2022-12-14T03:06:36.919Z,18.40
2022-12-14T03:09:31.987Z,19.52
2022-12-14T03:12:30.004Z,19.65
2022-12-14T03:15:20.993Z,18.17
2022-12-14T03:18:05.928Z,18.75
2022-12-14T03:20:56.944Z,17.05
2022-12-14T03:23:41.928Z,18.10
2022-12-14T03:26:47.657Z,18.10
2022-12-14T03:29:38.949Z,18.05
2022-12-14T03:32:26.951Z,18.73
2022-12-14T03:35:28.999Z,19.35
2022-12-14T03:38:40.978Z,18.95
2022-12-14T03:41:57.935Z,17.45
2022-12-14T03:45:13.019Z,18.65
2022-12-14T03:48:20.956Z,19.77
2022-12-14T03:51:03.914Z,17.73
2022-12-14T03:54:05.925Z,18.85
2022-12-14T03:57:05.918Z,16.67
2022-12-14T04:00:28.988Z,17.90
2022-12-14T04:03:33.943Z,16.42
2022-12-14T04:06:43.928Z,17.15
2022-12-14T04:09:55.936Z,18.15
2022-12-14T04:13:11.938Z,15.68
2022-12-14T04:16:27.020Z,16.95
2022-12-14T04:19:22.957Z,16.48
2022-12-14T04:22:22.948Z,15.88
2022-12-14T04:25:44.961Z,15.77
2022-12-14T04:28:55.932Z,15.25
2022-12-14T04:31:42.004Z,16.52
2022-12-14T04:34:38.966Z,17.50
2022-12-14T04:37:29.010Z,16.63
2022-12-14T04:40:12.034Z,16.85
2022-12-14T04:43:11.926Z,16.45
2022-12-14T04:45:53.075Z,16.05
2022-12-14T04:49:01.934Z,16.67
2022-12-14T04:52:01.929Z,16.17
2022-12-14T04:55:06.966Z,17.02
2022-12-14T04:58:10.949Z,16.65
2022-12-14T05:01:30.022Z,17.58
2022-12-14T05:04:22.006Z,17.13
2022-12-14T05:07:12.143Z,17.02
2022-12-14T05:10:05.925Z,16.05
2022-12-14T05:12:58.955Z,16.70
2022-12-14T05:16:05.054Z,16.08
2022-12-14T05:18:51.944Z,16.95
2022-12-14T05:21:43.796Z,15.48
2022-12-14T05:24:30.972Z,17.63
2022-12-14T05:27:11.010Z,16.52
2022-12-14T05:30:04.996Z,17.27
2022-12-14T05:32:51.973Z,16.52
2022-12-14T05:35:25.078Z,16.42
2022-12-14T05:38:11.957Z,14.43
2022-12-14T05:40:46.007Z,18.38
2022-12-14T05:43:32.958Z,17.58
2022-12-14T05:46:08.204Z,16.42
2022-12-14T05:48:54.976Z,17.98
2022-12-14T05:51:28.074Z,17.50
2022-12-14T05:54:14.954Z,17.45
2022-12-14T05:56:55.014Z,18.20
2022-12-14T05:59:48.973Z,17.15
2022-12-14T06:02:36.033Z,17.83
2022-12-14T06:05:09.038Z,18.02
2022-12-14T06:07:56.022Z,18.48
2022-12-14T06:10:29.040Z,18.55
2022-12-14T06:13:15.974Z,20.55
2022-12-14T06:15:49.081Z,19.92
2022-12-14T06:18:35.964Z,18.70
2022-12-14T06:21:16.946Z,18.38
2022-12-14T06:24:04.960Z,20.85
2022-12-14T06:26:48.972Z,21.10
2022-12-14T06:29:42.978Z,18.95
2022-12-14T06:32:36.966Z,20.80
2022-12-14T06:35:23.975Z,18.10
2022-12-14T06:37:57.042Z,19.17
2022-12-14T06:40:43.998Z,17.30
2022-12-14T06:43:17.098Z,17.58
2022-12-14T06:46:15.031Z,17.70
2022-12-14T06:49:09.993Z,18.92
2022-12-14T06:51:56.964Z,19.70
2022-12-14T06:54:37.005Z,19.73
2022-12-14T06:57:31.020Z,20.80
2022-12-14T07:00:21.054Z,21.30
2022-12-14T07:02:55.244Z,23.38
2022-12-14T07:05:47.227Z,22.10
2022-12-14T07:08:22.068Z,23.73
2022-12-14T07:11:17.992Z,23.92
2022-12-14T07:13:52.060Z,23.38
2022-12-14T07:16:43.819Z,21.67
2022-12-14T07:19:20.135Z,21.63
2022-12-14T07:22:11.055Z,23.42
2022-12-14T07:24:44.063Z,24.23
2022-12-14T07:27:30.985Z,23.38
2022-12-14T07:30:04.079Z,24.00
2022-12-14T07:32:51.985Z,22.70
2022-12-14T07:35:25.706Z,22.77
2022-12-14T07:38:11.970Z,21.85
2022-12-14T07:40:51.986Z,23.42
2022-12-14T07:43:38.999Z,21.75
2022-12-14T07:46:15.325Z,21.73
2022-12-14T07:49:03.984Z,21.75
2022-12-14T07:51:42.022Z,28.40
2022-12-14T07:54:29.024Z,27.63
2022-12-14T07:57:02.174Z,26.67
2022-12-14T07:59:52.893Z,26.80
2022-12-14T08:02:29.187Z,23.15
2022-12-14T08:05:15.997Z,25.08
2022-12-14T08:07:56.007Z,29.05
2022-12-14T08:10:49.998Z,32.05
2022-12-14T08:13:45.010Z,33.45
2022-12-14T08:16:39.069Z,28.33
2022-12-14T08:19:26.069Z,28.55
2022-12-14T08:21:59.073Z,26.05
2022-12-14T08:24:49.594Z,28.65
2022-12-14T08:27:23.117Z,27.02
2022-12-14T08:30:10.994Z,26.10
2022-12-14T08:32:51.033Z,28.00
2022-12-14T08:35:48.030Z,26.15
2022-12-14T08:38:35.109Z,28.60
2022-12-14T08:41:13.092Z,28.10
2022-12-14T08:44:02.013Z,27.08
2022-12-14T08:46:39.212Z,25.80
2022-12-14T08:49:31.958Z,25.15
2022-12-14T08:52:12.040Z,26.33
2022-12-14T08:55:06.997Z,29.63
2022-12-14T08:57:54.996Z,32.80
2022-12-14T09:00:35.052Z,27.58
2022-12-14T09:03:22.048Z,28.58
2022-12-14T09:05:55.606Z,31.92
2022-12-14T09:08:43.015Z,32.42
2022-12-14T09:11:28.029Z,29.02
2022-12-14T09:14:09.008Z,32.90
2022-12-14T09:16:49.057Z,25.88
2022-12-14T09:19:22.104Z,25.95
2022-12-14T09:22:09.106Z,20.10
2022-12-14T09:24:43.211Z,21.40
2022-12-14T09:27:30.017Z,18.75
2022-12-14T09:30:03.093Z,17.85
2022-12-14T09:32:53.013Z,16.52
2022-12-14T09:35:26.117Z,17.67
2022-12-14T09:38:13.019Z,14.93
2022-12-14T09:40:59.035Z,18.10
2022-12-14T09:43:49.028Z,18.20
2022-12-14T09:46:51.114Z,18.67
2022-12-14T09:50:05.011Z,24.17
2022-12-14T09:52:55.032Z,24.95
2022-12-14T09:55:28.124Z,27.10
2022-12-14T09:58:34.036Z,21.58
2022-12-14T10:01:10.187Z,22.27
2022-12-14T10:04:38.165Z,22.38
2022-12-14T10:07:54.135Z,23.63
2022-12-14T10:11:06.069Z,18.98
2022-12-14T10:14:15.039Z,20.13
2022-12-14T10:17:31.037Z,17.42
2022-12-14T10:20:43.059Z,18.80
2022-12-14T10:23:39.052Z,19.15
2022-12-14T10:26:36.046Z,17.50
2022-12-14T10:29:38.039Z,18.85
2022-12-14T10:32:53.023Z,19.45
2022-12-14T10:36:26.066Z,20.60
2022-12-14T10:39:08.111Z,20.52
2022-12-14T10:42:02.031Z,20.08
2022-12-14T10:48:48.062Z,23.42
2022-12-14T10:52:06.035Z,20.88
2022-12-14T10:55:05.029Z,24.00
2022-12-14T10:57:52.118Z,21.52
2022-12-14T11:00:25.218Z,20.38
2022-12-14T11:03:21.094Z,17.90
2022-12-14T11:06:19.156Z,19.05
2022-12-14T11:09:06.049Z,19.40
2022-12-14T11:11:46.171Z,19.80
2022-12-14T11:14:40.043Z,19.92
2022-12-14T11:17:53.184Z,19.42
2022-12-14T11:20:31.179Z,22.33
2022-12-14T11:23:31.066Z,19.92
2022-12-14T11:26:06.127Z,21.50
2022-12-14T11:28:56.062Z,28.05
2022-12-14T11:32:01.155Z,26.16
2022-12-14T11:34:55.170Z,20.42
2022-12-14T11:37:42.149Z,21.17
2022-12-14T11:40:34.171Z,19.00
2022-12-14T11:43:51.163Z,23.55
2022-12-14T11:46:50.226Z,25.13
2022-12-14T11:49:47.314Z,20.38
2022-12-14T11:52:49.351Z,21.55
2022-12-14T11:55:28.225Z,22.58
2022-12-14T11:58:24.156Z,20.73
2022-12-14T12:01:17.224Z,21.92
2022-12-14T12:04:05.209Z,19.60
2022-12-14T12:06:45.172Z,23.42
2022-12-14T12:09:43.167Z,19.85
2022-12-14T12:12:30.181Z,19.25
2022-12-14T12:15:04.313Z,17.17
2022-12-14T12:17:53.153Z,17.45
2022-12-14T12:20:42.179Z,23.40
2022-12-14T12:23:41.176Z,22.55
2022-12-14T12:26:37.199Z,22.70
2022-12-14T12:29:27.161Z,25.50
2022-12-14T12:32:26.198Z,22.08
2022-12-14T12:35:14.179Z,22.23
2022-12-14T12:37:58.202Z,23.02
2022-12-14T12:40:58.175Z,26.35
2022-12-14T12:44:01.172Z,24.05
2022-12-14T12:47:26.080Z,23.70
2022-12-14T12:50:31.164Z,21.73
2022-12-14T12:53:12.248Z,27.70
2022-12-14T12:56:05.184Z,25.95
2022-12-14T12:58:52.647Z,22.73
2022-12-14T13:01:44.293Z,22.90
2022-12-14T13:04:42.203Z,21.30
2022-12-14T13:07:27.275Z,24.98
2022-12-14T13:10:29.176Z,22.92
2022-12-14T13:13:09.192Z,24.75
2022-12-14T13:16:00.262Z,24.63
2022-12-14T13:18:59.669Z,30.88
2022-12-14T13:21:54.595Z,28.05
2022-12-14T13:24:37.201Z,29.20
2022-12-14T13:27:56.196Z,28.15
2022-12-14T13:30:59.233Z,26.70
2022-12-14T13:34:17.179Z,23.45
2022-12-14T13:37:07.196Z,24.23
2022-12-14T13:40:02.201Z,23.13
2022-12-14T13:43:18.195Z,30.65
2022-12-14T13:46:20.249Z,27.00
2022-12-14T13:48:56.294Z,27.63
2022-12-14T13:51:46.186Z,26.13
2022-12-14T13:54:32.309Z,26.25
2022-12-14T13:57:28.211Z,24.92
2022-12-14T14:00:09.193Z,23.02
2022-12-14T14:03:06.322Z,27.52
2022-12-14T14:05:53.193Z,27.48
2022-12-14T14:08:42.082Z,27.73
2022-12-14T14:11:37.796Z,24.33
2022-12-14T14:14:34.270Z,25.63
2022-12-14T14:17:31.289Z,25.38
2022-12-14T14:20:06.297Z,30.25
2022-12-14T14:23:25.216Z,28.45
2022-12-14T14:26:38.192Z,26.58
2022-12-14T14:29:43.223Z,23.42
2022-12-14T14:32:39.237Z,25.20
2022-12-14T14:35:37.197Z,22.30
2022-12-14T14:38:44.211Z,17.88
2022-12-14T14:41:36.195Z,18.48
2022-12-14T14:44:12.272Z,19.92
2022-12-14T14:46:59.302Z,23.33
2022-12-14T14:49:43.633Z,21.00
2022-12-14T14:52:48.234Z,20.73
2022-12-14T14:55:54.436Z,19.35
2022-12-14T14:58:43.211Z,18.52
2022-12-14T15:01:33.245Z,18.67
2022-12-14T15:04:28.247Z,17.45
2022-12-14T15:07:16.205Z,21.55
2022-12-14T15:10:45.208Z,20.75
2022-12-14T15:13:37.237Z,20.35
2022-12-14T15:16:10.366Z,16.27
2022-12-14T15:18:57.210Z,19.98
2022-12-14T15:21:37.232Z,18.63
2022-12-14T15:24:31.223Z,19.52
2022-12-14T15:27:21.229Z,20.13
2022-12-14T15:29:54.356Z,21.05
2022-12-14T15:32:47.263Z,24.65
2022-12-14T15:35:36.242Z,21.05
2022-12-14T15:38:36.219Z,21.42
2022-12-14T15:41:26.227Z,22.92
2022-12-14T15:44:09.230Z,21.83
2022-12-14T15:47:07.228Z,23.08
2022-12-14T15:50:04.342Z,17.80
2022-12-14T15:52:49.318Z,20.23
2022-12-14T15:55:47.251Z,20.17
2022-12-14T15:58:23.374Z,22.23
2022-12-14T16:01:28.300Z,22.52
2022-12-14T16:04:05.495Z,21.33
2022-12-14T16:07:25.292Z,20.92
2022-12-14T16:10:03.651Z,19.92
2022-12-14T16:12:53.227Z,20.88
2022-12-14T16:15:32.317Z,23.13
2022-12-14T16:18:23.229Z,23.00
2022-12-14T16:21:13.235Z,23.88
2022-12-14T16:24:07.270Z,19.70
2022-12-14T16:27:02.253Z,15.15
2022-12-14T16:29:37.356Z,15.98
2022-12-14T16:32:34.248Z,16.17
2022-12-14T16:35:08.390Z,20.55
2022-12-14T16:38:02.256Z,25.90
2022-12-14T16:40:43.361Z,25.05
2022-12-14T16:43:38.250Z,19.35
2022-12-14T16:46:18.332Z,19.00
2022-12-14T16:49:32.263Z,20.10
2022-12-14T16:52:35.270Z,20.33
2022-12-14T16:55:33.274Z,17.13
2022-12-14T16:58:24.245Z,17.63
2022-12-14T17:01:06.503Z,20.13
2022-12-14T17:04:02.316Z,17.55
2022-12-14T17:06:55.368Z,19.13
2022-12-14T17:09:43.256Z,18.70
2022-12-14T17:12:28.271Z,22.00
2022-12-14T17:15:19.244Z,22.45
2022-12-14T17:17:54.833Z,18.75
2022-12-14T17:20:43.257Z,20.98
2022-12-14T17:23:23.331Z,23.40
2022-12-14T17:26:10.268Z,22.13
2022-12-14T17:28:50.267Z,20.27
2022-12-14T17:31:50.142Z,23.27
2022-12-14T17:34:37.248Z,20.38
2022-12-14T17:37:29.747Z,19.67
2022-12-14T17:40:26.294Z,24.33
2022-12-14T17:43:25.259Z,23.60
2022-12-14T17:46:19.360Z,23.60
2022-12-14T17:49:13.257Z,23.23
2022-12-14T17:52:00.279Z,21.15
2022-12-14T17:54:41.252Z,22.92
2022-12-14T17:57:32.283Z,25.27
2022-12-14T18:00:30.276Z,25.63
2022-12-14T18:03:25.331Z,22.88
2022-12-14T18:06:12.299Z,25.38
2022-12-14T18:08:45.410Z,24.45
2022-12-14T18:11:33.278Z,22.80
2022-12-14T18:14:06.367Z,26.17
2022-12-14T18:16:53.292Z,20.08
2022-12-14T18:19:26.393Z,21.00
2022-12-14T18:22:14.272Z,21.52
2022-12-14T18:24:54.278Z,22.75
2022-12-14T18:27:48.392Z,21.73
2022-12-14T18:30:49.216Z,24.67
2022-12-14T18:33:43.274Z,23.75
2022-12-14T18:36:30.301Z,30.48
2022-12-14T18:39:03.420Z,25.33
2022-12-14T18:41:50.258Z,37.38
2022-12-14T18:44:23.368Z,30.45
2022-12-14T18:47:40.147Z,40.30
2022-12-14T18:50:10.307Z,31.17
2022-12-14T18:53:04.310Z,30.08
2022-12-14T18:55:58.368Z,25.13
2022-12-14T18:58:48.281Z,25.90
2022-12-14T19:01:24.995Z,24.15
2022-12-14T19:04:05.457Z,23.08
2022-12-14T19:06:46.002Z,23.45
2022-12-14T19:09:21.426Z,24.25
2022-12-14T19:12:08.293Z,23.75
2022-12-14T19:14:48.428Z,20.90
2022-12-14T19:17:43.313Z,18.77
2022-12-14T19:20:31.314Z,18.42
2022-12-14T19:23:04.376Z,15.10
2022-12-14T19:25:52.287Z,14.25
2022-12-14T19:28:33.312Z,16.63
2022-12-14T19:31:27.417Z,17.55
2022-12-14T19:34:16.284Z,15.52
2022-12-14T19:36:56.413Z,14.00
2022-12-14T19:39:50.297Z,17.85
2022-12-14T19:42:45.314Z,15.15
2022-12-14T19:45:39.294Z,17.13
2022-12-14T19:48:26.324Z,16.00
2022-12-14T19:50:59.391Z,15.80
2022-12-14T19:53:48.298Z,16.38
2022-12-14T19:56:24.364Z,17.27
2022-12-14T19:59:11.294Z,21.58
2022-12-14T20:01:51.456Z,20.27
2022-12-14T20:04:38.334Z,18.48
2022-12-14T20:07:18.292Z,18.70
2022-12-14T20:10:05.307Z,20.33
2022-12-14T20:12:41.398Z,20.35
2022-12-14T20:15:28.296Z,16.58
2022-12-14T20:18:01.564Z,16.77
2022-12-14T20:20:49.580Z,17.25
2022-12-14T20:23:24.432Z,16.73
2022-12-14T20:26:14.306Z,20.58
2022-12-14T20:28:54.339Z,20.75
2022-12-14T20:31:49.348Z,25.30
2022-12-14T20:34:37.319Z,20.58
2022-12-14T20:37:10.385Z,15.88
2022-12-14T20:39:57.314Z,21.83
2022-12-14T20:42:30.395Z,24.98
2022-12-14T20:45:17.349Z,21.58
2022-12-14T20:47:50.407Z,18.23
2022-12-14T20:50:37.332Z,15.68
2022-12-14T20:53:11.396Z,17.30
2022-12-14T20:55:58.349Z,19.80
2022-12-14T20:58:31.390Z,20.23
2022-12-14T21:01:21.555Z,18.27
2022-12-14T21:03:57.626Z,16.75
2022-12-14T21:06:46.325Z,17.13
2022-12-14T21:09:19.438Z,19.58
2022-12-14T21:12:24.312Z,18.95
2022-12-14T21:15:02.443Z,17.23
2022-12-14T21:17:49.327Z,16.60
2022-12-14T21:20:23.537Z,15.60
2022-12-14T21:23:10.329Z,13.80
2022-12-14T21:25:50.384Z,16.02
2022-12-14T21:28:45.346Z,14.68
2022-12-14T21:31:32.413Z,14.60
2022-12-14T21:34:05.515Z,15.90
2022-12-14T21:36:52.336Z,16.35
2022-12-14T21:39:26.426Z,14.02
2022-12-14T21:42:17.349Z,14.57
2022-12-14T21:44:53.480Z,14.38
2022-12-14T21:47:40.315Z,15.50
2022-12-14T21:50:14.482Z,16.60
2022-12-14T21:53:01.386Z,16.08
2022-12-14T21:55:41.336Z,16.40
2022-12-14T21:58:35.398Z,14.50
2022-12-14T22:01:22.454Z,17.30
2022-12-14T22:03:59.410Z,16.48
2022-12-14T22:06:46.366Z,16.52
2022-12-14T22:09:19.409Z,15.98
2022-12-14T22:12:06.353Z,16.55
2022-12-14T22:14:46.357Z,16.42
2022-12-14T22:17:33.334Z,15.70
2022-12-14T22:20:06.446Z,14.73
2022-12-14T22:22:53.338Z,15.52
2022-12-14T22:25:26.437Z,17.70
2022-12-14T22:28:13.346Z,17.23
2022-12-14T22:30:46.424Z,20.42
2022-12-14T22:33:33.770Z,32.88
2022-12-14T22:36:07.428Z,37.70
2022-12-14T22:38:54.357Z,34.13
2022-12-14T22:41:34.350Z,22.10
2022-12-14T22:44:21.379Z,20.75
2022-12-14T22:47:01.390Z,18.63
2022-12-14T22:49:55.347Z,20.52
2022-12-14T22:52:42.354Z,18.20
2022-12-14T22:55:16.468Z,17.10
2022-12-14T22:58:04.357Z,15.38
2022-12-14T23:00:37.421Z,17.55
2022-12-14T23:03:24.434Z,16.23
2022-12-14T23:06:01.879Z,16.70
2022-12-14T23:09:08.349Z,16.65
2022-12-14T23:11:59.988Z,15.98
2022-12-14T23:14:58.366Z,17.02
2022-12-14T23:17:56.373Z,16.20
2022-12-14T23:20:48.083Z,15.68
2022-12-14T23:23:52.385Z,15.35
2022-12-14T23:26:43.952Z,15.70
2022-12-14T23:29:49.377Z,16.77
2022-12-14T23:32:47.377Z,16.20
2022-12-14T23:35:59.400Z,15.70
2022-12-14T23:39:04.368Z,16.52
2022-12-14T23:41:56.122Z,16.58
2022-12-14T23:45:00.377Z,15.50
2022-12-14T23:47:59.366Z,15.35
2022-12-14T23:51:04.386Z,16.95
2022-12-14T23:53:56.111Z,16.50
2022-12-14T23:57:01.403Z,16.77
2022-12-14T23:59:53.425Z,16.48
